sensor_id;sensor_type;location;lat;lon;timestamp;temperature;humidity
33007;DHT22;19361;51.598;7.650;2023-06-26T00:01:07;27.00;48.90
33007;DHT22;19361;51.598;7.650;2023-06-26T00:06:28;27.00;49.00
33007;DHT22;19361;51.598;7.650;2023-06-26T00:11:49;26.90;49.10
33007;DHT22;19361;51.598;7.650;2023-06-26T00:17:11;26.80;49.30
33007;DHT22;19361;51.598;7.650;2023-06-26T00:22:32;26.70;49.40
33007;DHT22;19361;51.598;7.650;2023-06-26T00:27:53;26.60;50.00
33007;DHT22;19361;51.598;7.650;2023-06-26T00:33:14;26.50;49.70
33007;DHT22;19361;51.598;7.650;2023-06-26T00:38:36;26.40;49.70
33007;DHT22;19361;51.598;7.650;2023-06-26T00:43:57;26.30;49.00
33007;DHT22;19361;51.598;7.650;2023-06-26T00:49:18;26.40;48.30
33007;DHT22;19361;51.598;7.650;2023-06-26T00:54:39;26.20;47.80
33007;DHT22;19361;51.598;7.650;2023-06-26T01:00:02;26.20;47.60
33007;DHT22;19361;51.598;7.650;2023-06-26T01:05:26;26.10;47.30
33007;DHT22;19361;51.598;7.650;2023-06-26T01:10:48;26.10;47.00
33007;DHT22;19361;51.598;7.650;2023-06-26T01:16:09;26.00;46.60
33007;DHT22;19361;51.598;7.650;2023-06-26T01:21:31;26.00;46.50
33007;DHT22;19361;51.598;7.650;2023-06-26T01:26:53;26.00;46.30
33007;DHT22;19361;51.598;7.650;2023-06-26T01:32:14;26.00;46.30
33007;DHT22;19361;51.598;7.650;2023-06-26T01:37:35;25.90;45.90
33007;DHT22;19361;51.598;7.650;2023-06-26T01:42:57;25.90;45.90
33007;DHT22;19361;51.598;7.650;2023-06-26T01:48:23;25.90;45.70
33007;DHT22;19361;51.598;7.650;2023-06-26T01:53:49;25.90;45.70
33007;DHT22;19361;51.598;7.650;2023-06-26T01:59:13;25.80;45.40
33007;DHT22;19361;51.598;7.650;2023-06-26T02:04:35;25.80;45.40
33007;DHT22;19361;51.598;7.650;2023-06-26T02:09:56;25.80;45.80
33007;DHT22;19361;51.598;7.650;2023-06-26T02:15:17;25.80;45.20
33007;DHT22;19361;51.598;7.650;2023-06-26T02:20:38;25.80;45.20
33007;DHT22;19361;51.598;7.650;2023-06-26T02:26:00;25.70;45.30
33007;DHT22;19361;51.598;7.650;2023-06-26T02:31:21;25.60;45.10
33007;DHT22;19361;51.598;7.650;2023-06-26T02:36:42;25.60;45.30
33007;DHT22;19361;51.598;7.650;2023-06-26T02:42:04;25.60;45.30
33007;DHT22;19361;51.598;7.650;2023-06-26T02:47:25;25.50;45.30
33007;DHT22;19361;51.598;7.650;2023-06-26T02:52:46;25.50;45.30
33007;DHT22;19361;51.598;7.650;2023-06-26T02:58:11;25.50;45.30
33007;DHT22;19361;51.598;7.650;2023-06-26T03:03:32;25.40;45.00
33007;DHT22;19361;51.598;7.650;2023-06-26T03:09:01;25.40;45.00
33007;DHT22;19361;51.598;7.650;2023-06-26T03:14:22;25.30;45.10
33007;DHT22;19361;51.598;7.650;2023-06-26T03:19:43;25.30;45.10
33007;DHT22;19361;51.598;7.650;2023-06-26T03:25:04;25.30;45.20
33007;DHT22;19361;51.598;7.650;2023-06-26T03:30:25;25.20;45.30
33007;DHT22;19361;51.598;7.650;2023-06-26T03:35:46;25.20;45.40
33007;DHT22;19361;51.598;7.650;2023-06-26T03:41:07;25.20;45.70
33007;DHT22;19361;51.598;7.650;2023-06-26T03:46:28;25.20;45.60
33007;DHT22;19361;51.598;7.650;2023-06-26T03:51:50;25.20;45.40
33007;DHT22;19361;51.598;7.650;2023-06-26T03:57:11;25.20;45.50
33007;DHT22;19361;51.598;7.650;2023-06-26T04:02:32;25.20;45.60
33007;DHT22;19361;51.598;7.650;2023-06-26T04:07:54;25.20;45.80
33007;DHT22;19361;51.598;7.650;2023-06-26T04:13:15;25.20;45.50
33007;DHT22;19361;51.598;7.650;2023-06-26T04:18:36;25.20;45.60
33007;DHT22;19361;51.598;7.650;2023-06-26T04:23:57;25.20;45.90
33007;DHT22;19361;51.598;7.650;2023-06-26T04:29:18;25.30;46.40
33007;DHT22;19361;51.598;7.650;2023-06-26T04:34:39;25.60;46.60
33007;DHT22;19361;51.598;7.650;2023-06-26T04:40:03;26.20;46.80
33007;DHT22;19361;51.598;7.650;2023-06-26T04:45:26;27.00;46.00
33007;DHT22;19361;51.598;7.650;2023-06-26T04:50:47;27.70;45.20
33007;DHT22;19361;51.598;7.650;2023-06-26T04:56:14;28.30;44.40
33007;DHT22;19361;51.598;7.650;2023-06-26T05:01:35;28.70;44.30
33007;DHT22;19361;51.598;7.650;2023-06-26T05:07:00;29.30;43.30
33007;DHT22;19361;51.598;7.650;2023-06-26T05:12:21;29.50;42.70
33007;DHT22;19361;51.598;7.650;2023-06-26T05:17:42;29.70;42.20
33007;DHT22;19361;51.598;7.650;2023-06-26T05:23:03;29.70;42.70
33007;DHT22;19361;51.598;7.650;2023-06-26T05:28:25;29.80;42.50
33007;DHT22;19361;51.598;7.650;2023-06-26T05:33:49;29.90;42.90
33007;DHT22;19361;51.598;7.650;2023-06-26T05:39:11;30.10;42.90
33007;DHT22;19361;51.598;7.650;2023-06-26T05:44:32;30.20;42.60
33007;DHT22;19361;51.598;7.650;2023-06-26T05:49:53;30.20;42.60
33007;DHT22;19361;51.598;7.650;2023-06-26T05:55:15;30.10;42.40
33007;DHT22;19361;51.598;7.650;2023-06-26T06:00:37;30.00;42.50
33007;DHT22;19361;51.598;7.650;2023-06-26T06:05:59;29.80;42.50
33007;DHT22;19361;51.598;7.650;2023-06-26T06:11:20;29.50;42.80
33007;DHT22;19361;51.598;7.650;2023-06-26T06:16:42;29.20;43.40
33007;DHT22;19361;51.598;7.650;2023-06-26T06:22:03;29.00;43.90
33007;DHT22;19361;51.598;7.650;2023-06-26T06:27:24;28.80;43.70
33007;DHT22;19361;51.598;7.650;2023-06-26T06:32:45;28.60;44.10
33007;DHT22;19361;51.598;7.650;2023-06-26T06:38:10;28.50;44.50
33007;DHT22;19361;51.598;7.650;2023-06-26T06:43:31;28.40;44.80
33007;DHT22;19361;51.598;7.650;2023-06-26T06:48:53;28.30;44.70
33007;DHT22;19361;51.598;7.650;2023-06-26T06:54:16;28.00;44.80
33007;DHT22;19361;51.598;7.650;2023-06-26T06:59:37;27.80;45.50
33007;DHT22;19361;51.598;7.650;2023-06-26T07:04:58;27.80;46.20
33007;DHT22;19361;51.598;7.650;2023-06-26T07:10:19;27.80;46.20
33007;DHT22;19361;51.598;7.650;2023-06-26T07:15:40;27.80;46.60
33007;DHT22;19361;51.598;7.650;2023-06-26T07:21:01;27.80;46.90
33007;DHT22;19361;51.598;7.650;2023-06-26T07:26:22;27.90;47.20
33007;DHT22;19361;51.598;7.650;2023-06-26T07:31:43;28.00;47.20
33007;DHT22;19361;51.598;7.650;2023-06-26T07:37:05;28.20;47.00
33007;DHT22;19361;51.598;7.650;2023-06-26T07:42:27;28.30;46.80
33007;DHT22;19361;51.598;7.650;2023-06-26T07:47:49;28.50;46.90
33007;DHT22;19361;51.598;7.650;2023-06-26T07:53:10;28.50;46.50
33007;DHT22;19361;51.598;7.650;2023-06-26T07:58:31;28.50;46.70
33007;DHT22;19361;51.598;7.650;2023-06-26T08:03:52;28.50;46.40
33007;DHT22;19361;51.598;7.650;2023-06-26T08:09:13;28.60;46.80
33007;DHT22;19361;51.598;7.650;2023-06-26T08:14:34;28.60;46.60
33007;DHT22;19361;51.598;7.650;2023-06-26T08:19:55;28.70;46.50
33007;DHT22;19361;51.598;7.650;2023-06-26T08:25:16;28.80;46.60
33007;DHT22;19361;51.598;7.650;2023-06-26T08:30:37;29.00;46.90
33007;DHT22;19361;51.598;7.650;2023-06-26T08:35:58;29.10;47.00
33007;DHT22;19361;51.598;7.650;2023-06-26T08:41:20;29.20;46.20
33007;DHT22;19361;51.598;7.650;2023-06-26T08:46:41;29.10;45.70
33007;DHT22;19361;51.598;7.650;2023-06-26T08:52:10;29.00;46.30
33007;DHT22;19361;51.598;7.650;2023-06-26T08:57:35;29.00;46.50
33007;DHT22;19361;51.598;7.650;2023-06-26T09:02:58;29.00;46.40
33007;DHT22;19361;51.598;7.650;2023-06-26T09:08:20;29.10;46.30
33007;DHT22;19361;51.598;7.650;2023-06-26T09:13:41;29.10;46.70
33007;DHT22;19361;51.598;7.650;2023-06-26T09:19:03;29.20;46.40
33007;DHT22;19361;51.598;7.650;2023-06-26T09:24:25;29.20;45.90
33007;DHT22;19361;51.598;7.650;2023-06-26T09:29:46;29.20;45.90
33007;DHT22;19361;51.598;7.650;2023-06-26T09:35:07;29.20;45.70
33007;DHT22;19361;51.598;7.650;2023-06-26T09:40:29;29.20;45.30
33007;DHT22;19361;51.598;7.650;2023-06-26T09:45:50;29.10;45.50
33007;DHT22;19361;51.598;7.650;2023-06-26T09:51:11;29.00;45.90
33007;DHT22;19361;51.598;7.650;2023-06-26T09:56:32;29.10;46.30
33007;DHT22;19361;51.598;7.650;2023-06-26T10:01:59;29.30;45.70
33007;DHT22;19361;51.598;7.650;2023-06-26T10:07:21;29.50;45.50
33007;DHT22;19361;51.598;7.650;2023-06-26T10:12:47;29.70;44.60
33007;DHT22;19361;51.598;7.650;2023-06-26T10:18:10;29.80;44.10
33007;DHT22;19361;51.598;7.650;2023-06-26T10:23:32;29.90;44.00
33007;DHT22;19361;51.598;7.650;2023-06-26T10:28:56;29.90;43.20
33007;DHT22;19361;51.598;7.650;2023-06-26T10:34:18;29.90;43.40
33007;DHT22;19361;51.598;7.650;2023-06-26T10:39:49;29.80;42.60
33007;DHT22;19361;51.598;7.650;2023-06-26T10:45:17;29.70;42.60
33007;DHT22;19361;51.598;7.650;2023-06-26T10:50:40;29.80;43.00
33007;DHT22;19361;51.598;7.650;2023-06-26T10:56:03;29.90;43.00
33007;DHT22;19361;51.598;7.650;2023-06-26T11:01:25;30.10;41.50
33007;DHT22;19361;51.598;7.650;2023-06-26T11:06:46;30.40;41.30
33007;DHT22;19361;51.598;7.650;2023-06-26T11:12:09;30.50;40.10
33007;DHT22;19361;51.598;7.650;2023-06-26T11:17:31;30.60;40.10
33007;DHT22;19361;51.598;7.650;2023-06-26T11:22:52;30.70;39.20
33007;DHT22;19361;51.598;7.650;2023-06-26T11:28:14;30.70;37.80
33007;DHT22;19361;51.598;7.650;2023-06-26T11:33:35;30.70;38.30
33007;DHT22;19361;51.598;7.650;2023-06-26T11:39:01;30.70;38.60
33007;DHT22;19361;51.598;7.650;2023-06-26T11:44:24;30.80;38.00
33007;DHT22;19361;51.598;7.650;2023-06-26T11:49:46;30.90;37.90
33007;DHT22;19361;51.598;7.650;2023-06-26T11:55:08;30.90;37.20
33007;DHT22;19361;51.598;7.650;2023-06-26T12:00:31;30.80;37.50
33007;DHT22;19361;51.598;7.650;2023-06-26T12:05:53;30.60;37.80
33007;DHT22;19361;51.598;7.650;2023-06-26T12:11:14;30.40;38.80
33007;DHT22;19361;51.598;7.650;2023-06-26T12:16:36;30.30;38.40
33007;DHT22;19361;51.598;7.650;2023-06-26T12:22:06;30.30;38.20
33007;DHT22;19361;51.598;7.650;2023-06-26T12:27:29;30.20;37.60
33007;DHT22;19361;51.598;7.650;2023-06-26T12:32:50;30.20;37.20
33007;DHT22;19361;51.598;7.650;2023-06-26T12:38:11;30.20;37.40
33007;DHT22;19361;51.598;7.650;2023-06-26T12:43:38;30.20;37.40
33007;DHT22;19361;51.598;7.650;2023-06-26T12:48:59;30.30;37.90
33007;DHT22;19361;51.598;7.650;2023-06-26T12:54:21;30.30;36.50
33007;DHT22;19361;51.598;7.650;2023-06-26T12:59:42;30.30;37.40
33007;DHT22;19361;51.598;7.650;2023-06-26T13:05:04;30.30;36.70
33007;DHT22;19361;51.598;7.650;2023-06-26T13:10:25;30.30;35.40
33007;DHT22;19361;51.598;7.650;2023-06-26T13:15:49;30.30;34.20
33007;DHT22;19361;51.598;7.650;2023-06-26T13:21:10;30.40;33.80
33007;DHT22;19361;51.598;7.650;2023-06-26T13:26:32;30.50;33.10
33007;DHT22;19361;51.598;7.650;2023-06-26T13:31:53;30.60;32.40
33007;DHT22;19361;51.598;7.650;2023-06-26T13:37:14;30.60;31.40
33007;DHT22;19361;51.598;7.650;2023-06-26T13:42:36;30.70;30.90
33007;DHT22;19361;51.598;7.650;2023-06-26T13:47:57;30.70;31.50
33007;DHT22;19361;51.598;7.650;2023-06-26T13:53:19;30.70;32.00
33007;DHT22;19361;51.598;7.650;2023-06-26T13:58:40;30.70;31.70
33007;DHT22;19361;51.598;7.650;2023-06-26T14:04:01;30.70;31.80
33007;DHT22;19361;51.598;7.650;2023-06-26T14:09:22;30.70;32.50
33007;DHT22;19361;51.598;7.650;2023-06-26T14:14:43;30.60;32.80
33007;DHT22;19361;51.598;7.650;2023-06-26T14:20:04;30.40;32.40
33007;DHT22;19361;51.598;7.650;2023-06-26T14:25:33;30.20;32.20
33007;DHT22;19361;51.598;7.650;2023-06-26T14:30:54;30.20;32.20
33007;DHT22;19361;51.598;7.650;2023-06-26T14:36:16;30.20;32.40
33007;DHT22;19361;51.598;7.650;2023-06-26T14:41:37;30.30;32.90
33007;DHT22;19361;51.598;7.650;2023-06-26T14:46:58;30.40;32.70
33007;DHT22;19361;51.598;7.650;2023-06-26T14:52:19;30.40;32.80
33007;DHT22;19361;51.598;7.650;2023-06-26T14:57:40;30.40;31.30
33007;DHT22;19361;51.598;7.650;2023-06-26T15:03:02;30.40;31.60
33007;DHT22;19361;51.598;7.650;2023-06-26T15:08:23;30.40;31.70
33007;DHT22;19361;51.598;7.650;2023-06-26T15:13:44;30.40;31.70
33007;DHT22;19361;51.598;7.650;2023-06-26T15:19:05;30.40;31.00
33007;DHT22;19361;51.598;7.650;2023-06-26T15:24:26;30.30;31.30
33007;DHT22;19361;51.598;7.650;2023-06-26T15:29:47;30.30;31.20
33007;DHT22;19361;51.598;7.650;2023-06-26T15:35:09;30.20;31.20
33007;DHT22;19361;51.598;7.650;2023-06-26T15:40:30;30.10;30.70
33007;DHT22;19361;51.598;7.650;2023-06-26T15:45:51;30.10;30.80
33007;DHT22;19361;51.598;7.650;2023-06-26T15:51:13;30.00;30.30
33007;DHT22;19361;51.598;7.650;2023-06-26T15:56:37;29.90;30.80
33007;DHT22;19361;51.598;7.650;2023-06-26T16:01:58;29.80;30.20
33007;DHT22;19361;51.598;7.650;2023-06-26T16:07:19;29.70;31.10
33007;DHT22;19361;51.598;7.650;2023-06-26T16:12:40;29.50;31.30
33007;DHT22;19361;51.598;7.650;2023-06-26T16:18:02;29.40;31.60
33007;DHT22;19361;51.598;7.650;2023-06-26T16:23:23;29.20;31.50
33007;DHT22;19361;51.598;7.650;2023-06-26T16:28:44;29.00;31.60
33007;DHT22;19361;51.598;7.650;2023-06-26T16:34:08;28.70;32.10
33007;DHT22;19361;51.598;7.650;2023-06-26T16:39:29;28.60;31.90
33007;DHT22;19361;51.598;7.650;2023-06-26T16:44:50;28.50;31.30
33007;DHT22;19361;51.598;7.650;2023-06-26T16:50:12;28.40;31.50
33007;DHT22;19361;51.598;7.650;2023-06-26T16:55:33;28.20;31.70
33007;DHT22;19361;51.598;7.650;2023-06-26T17:00:54;28.10;31.60
33007;DHT22;19361;51.598;7.650;2023-06-26T17:06:16;28.00;32.20
33007;DHT22;19361;51.598;7.650;2023-06-26T17:11:37;27.90;32.20
33007;DHT22;19361;51.598;7.650;2023-06-26T17:16:58;27.80;32.50
33007;DHT22;19361;51.598;7.650;2023-06-26T17:22:19;27.70;32.40
33007;DHT22;19361;51.598;7.650;2023-06-26T17:27:40;27.70;32.00
33007;DHT22;19361;51.598;7.650;2023-06-26T17:33:01;27.60;32.00
33007;DHT22;19361;51.598;7.650;2023-06-26T17:38:24;27.50;32.00
33007;DHT22;19361;51.598;7.650;2023-06-26T17:43:45;27.50;32.60
33007;DHT22;19361;51.598;7.650;2023-06-26T17:49:06;27.50;32.50
33007;DHT22;19361;51.598;7.650;2023-06-26T17:54:27;27.50;32.70
33007;DHT22;19361;51.598;7.650;2023-06-26T17:59:48;27.40;32.80
33007;DHT22;19361;51.598;7.650;2023-06-26T18:05:09;27.60;33.10
33007;DHT22;19361;51.598;7.650;2023-06-26T18:10:31;27.80;32.40
33007;DHT22;19361;51.598;7.650;2023-06-26T18:15:52;28.00;32.10
33007;DHT22;19361;51.598;7.650;2023-06-26T18:21:13;28.00;31.80
33007;DHT22;19361;51.598;7.650;2023-06-26T18:26:34;27.80;31.60
33007;DHT22;19361;51.598;7.650;2023-06-26T18:31:55;27.60;30.50
33007;DHT22;19361;51.598;7.650;2023-06-26T18:37:17;27.40;30.70
33007;DHT22;19361;51.598;7.650;2023-06-26T18:42:38;27.20;30.60
33007;DHT22;19361;51.598;7.650;2023-06-26T18:47:59;26.90;30.20
33007;DHT22;19361;51.598;7.650;2023-06-26T18:53:20;26.80;30.40
33007;DHT22;19361;51.598;7.650;2023-06-26T18:58:41;26.60;31.10
33007;DHT22;19361;51.598;7.650;2023-06-26T19:04:02;26.40;31.70
33007;DHT22;19361;51.598;7.650;2023-06-26T19:09:23;26.20;32.40
33007;DHT22;19361;51.598;7.650;2023-06-26T19:14:45;26.10;33.00
33007;DHT22;19361;51.598;7.650;2023-06-26T19:20:06;25.90;33.50
33007;DHT22;19361;51.598;7.650;2023-06-26T19:25:28;25.70;34.00
33007;DHT22;19361;51.598;7.650;2023-06-26T19:30:49;25.60;34.30
33007;DHT22;19361;51.598;7.650;2023-06-26T19:36:12;25.40;34.60
33007;DHT22;19361;51.598;7.650;2023-06-26T19:41:35;25.30;34.90
33007;DHT22;19361;51.598;7.650;2023-06-26T19:46:57;25.10;35.00
33007;DHT22;19361;51.598;7.650;2023-06-26T19:52:18;25.00;35.20
33007;DHT22;19361;51.598;7.650;2023-06-26T19:57:41;24.90;35.50
33007;DHT22;19361;51.598;7.650;2023-06-26T20:03:03;24.70;35.70
33007;DHT22;19361;51.598;7.650;2023-06-26T20:08:24;24.60;36.00
33007;DHT22;19361;51.598;7.650;2023-06-26T20:13:46;24.50;36.20
33007;DHT22;19361;51.598;7.650;2023-06-26T20:19:07;24.40;36.60
33007;DHT22;19361;51.598;7.650;2023-06-26T20:24:28;24.20;36.80
33007;DHT22;19361;51.598;7.650;2023-06-26T20:29:54;24.10;37.00
33007;DHT22;19361;51.598;7.650;2023-06-26T20:35:15;24.00;37.30
33007;DHT22;19361;51.598;7.650;2023-06-26T20:40:36;23.90;37.20
33007;DHT22;19361;51.598;7.650;2023-06-26T20:45:58;23.80;37.50
33007;DHT22;19361;51.598;7.650;2023-06-26T20:51:21;23.70;37.60
33007;DHT22;19361;51.598;7.650;2023-06-26T20:56:45;23.60;38.00
33007;DHT22;19361;51.598;7.650;2023-06-26T21:02:06;23.50;37.90
33007;DHT22;19361;51.598;7.650;2023-06-26T21:07:27;23.40;38.00
33007;DHT22;19361;51.598;7.650;2023-06-26T21:12:48;23.30;38.60
33007;DHT22;19361;51.598;7.650;2023-06-26T21:18:09;23.20;38.70
33007;DHT22;19361;51.598;7.650;2023-06-26T21:23:30;23.10;38.80
33007;DHT22;19361;51.598;7.650;2023-06-26T21:28:51;23.00;39.00
33007;DHT22;19361;51.598;7.650;2023-06-26T21:34:12;22.90;39.20
33007;DHT22;19361;51.598;7.650;2023-06-26T21:39:33;22.80;39.30
33007;DHT22;19361;51.598;7.650;2023-06-26T21:44:54;22.70;39.50
33007;DHT22;19361;51.598;7.650;2023-06-26T21:50:16;22.70;39.70
33007;DHT22;19361;51.598;7.650;2023-06-26T21:55:37;22.60;39.90
33007;DHT22;19361;51.598;7.650;2023-06-26T22:00:58;22.50;40.20
33007;DHT22;19361;51.598;7.650;2023-06-26T22:06:19;22.40;40.40
33007;DHT22;19361;51.598;7.650;2023-06-26T22:11:40;22.30;40.30
33007;DHT22;19361;51.598;7.650;2023-06-26T22:17:01;22.20;40.60
33007;DHT22;19361;51.598;7.650;2023-06-26T22:22:22;22.10;40.80
33007;DHT22;19361;51.598;7.650;2023-06-26T22:27:51;22.00;41.00
33007;DHT22;19361;51.598;7.650;2023-06-26T22:33:13;21.90;41.40
33007;DHT22;19361;51.598;7.650;2023-06-26T22:38:34;21.90;41.40
33007;DHT22;19361;51.598;7.650;2023-06-26T22:43:55;21.80;41.60
33007;DHT22;19361;51.598;7.650;2023-06-26T22:49:16;21.70;42.00
33007;DHT22;19361;51.598;7.650;2023-06-26T22:54:37;21.60;42.00
33007;DHT22;19361;51.598;7.650;2023-06-26T22:59:58;21.60;42.30
33007;DHT22;19361;51.598;7.650;2023-06-26T23:05:19;21.50;42.30
33007;DHT22;19361;51.598;7.650;2023-06-26T23:10:40;21.50;42.40
33007;DHT22;19361;51.598;7.650;2023-06-26T23:16:01;21.40;42.60
33007;DHT22;19361;51.598;7.650;2023-06-26T23:21:23;21.40;42.90
33007;DHT22;19361;51.598;7.650;2023-06-26T23:26:44;21.30;43.00
33007;DHT22;19361;51.598;7.650;2023-06-26T23:32:06;21.20;43.10
33007;DHT22;19361;51.598;7.650;2023-06-26T23:37:27;21.10;43.20
33007;DHT22;19361;51.598;7.650;2023-06-26T23:42:50;21.10;43.40
33007;DHT22;19361;51.598;7.650;2023-06-26T23:48:12;21.00;43.60
33007;DHT22;19361;51.598;7.650;2023-06-26T23:53:33;21.00;43.80
33007;DHT22;19361;51.598;7.650;2023-06-26T23:58:54;20.90;44.30
